sensor_id;sensor_type;location;lat;lon;timestamp;temperature;humidity
3504;DHT22;1766;53.490;10.174;2023-11-18T00:00:11;11.70;51.20
3504;DHT22;1766;53.490;10.174;2023-11-18T00:02:17;11.80;51.30
3504;DHT22;1766;53.490;10.174;2023-11-18T00:04:19;11.70;51.20
3504;DHT22;1766;53.490;10.174;2023-11-18T00:06:21;11.80;51.30
3504;DHT22;1766;53.490;10.174;2023-11-18T00:08:24;11.80;51.20
3504;DHT22;1766;53.490;10.174;2023-11-18T00:10:25;11.80;51.20
3504;DHT22;1766;53.490;10.174;2023-11-18T00:12:27;11.90;51.30
3504;DHT22;1766;53.490;10.174;2023-11-18T00:14:28;11.80;51.20
3504;DHT22;1766;53.490;10.174;2023-11-18T00:16:30;11.90;51.20
3504;DHT22;1766;53.490;10.174;2023-11-18T00:18:31;11.90;51.30
3504;DHT22;1766;53.490;10.174;2023-11-18T00:20:34;11.90;51.30
3504;DHT22;1766;53.490;10.174;2023-11-18T00:22:36;11.90;51.70
3504;DHT22;1766;53.490;10.174;2023-11-18T00:24:39;11.90;51.20
3504;DHT22;1766;53.490;10.174;2023-11-18T00:26:41;11.90;51.20
3504;DHT22;1766;53.490;10.174;2023-11-18T00:28:43;11.90;51.30
3504;DHT22;1766;53.490;10.174;2023-11-18T00:30:44;11.90;51.20
3504;DHT22;1766;53.490;10.174;2023-11-18T00:32:52;11.90;51.30
3504;DHT22;1766;53.490;10.174;2023-11-18T00:34:54;11.90;51.20
3504;DHT22;1766;53.490;10.174;2023-11-18T00:36:55;11.90;51.30
3504;DHT22;1766;53.490;10.174;2023-11-18T00:38:57;11.90;51.30
3504;DHT22;1766;53.490;10.174;2023-11-18T00:41:01;11.90;51.80
3504;DHT22;1766;53.490;10.174;2023-11-18T00:43:03;11.90;50.90
3504;DHT22;1766;53.490;10.174;2023-11-18T00:45:05;11.90;51.30
3504;DHT22;1766;53.490;10.174;2023-11-18T00:47:08;11.80;51.20
3504;DHT22;1766;53.490;10.174;2023-11-18T00:49:10;11.80;51.20
3504;DHT22;1766;53.490;10.174;2023-11-18T00:51:12;11.80;51.30
3504;DHT22;1766;53.490;10.174;2023-11-18T00:53:14;11.80;51.30
3504;DHT22;1766;53.490;10.174;2023-11-18T00:55:16;11.90;51.40
3504;DHT22;1766;53.490;10.174;2023-11-18T00:57:20;11.80;51.30
3504;DHT22;1766;53.490;10.174;2023-11-18T00:59:22;11.90;51.40
3504;DHT22;1766;53.490;10.174;2023-11-18T01:01:24;11.90;51.30
3504;DHT22;1766;53.490;10.174;2023-11-18T01:03:26;11.90;51.30
3504;DHT22;1766;53.490;10.174;2023-11-18T01:05:28;11.90;51.50
3504;DHT22;1766;53.490;10.174;2023-11-18T01:07:32;11.90;51.40
3504;DHT22;1766;53.490;10.174;2023-11-18T01:09:34;12.00;51.50
3504;DHT22;1766;53.490;10.174;2023-11-18T01:11:39;11.90;51.30
3504;DHT22;1766;53.490;10.174;2023-11-18T01:13:42;12.00;51.40
3504;DHT22;1766;53.490;10.174;2023-11-18T01:15:44;12.00;51.40
3504;DHT22;1766;53.490;10.174;2023-11-18T01:17:46;12.00;51.30
3504;DHT22;1766;53.490;10.174;2023-11-18T01:19:48;12.00;51.40
3504;DHT22;1766;53.490;10.174;2023-11-18T01:21:50;12.00;51.40
3504;DHT22;1766;53.490;10.174;2023-11-18T01:23:53;12.00;51.40
3504;DHT22;1766;53.490;10.174;2023-11-18T01:25:55;12.00;51.50
3504;DHT22;1766;53.490;10.174;2023-11-18T01:27:57;12.10;51.50
3504;DHT22;1766;53.490;10.174;2023-11-18T01:30:02;12.10;51.50
3504;DHT22;1766;53.490;10.174;2023-11-18T01:32:05;12.10;51.50
3504;DHT22;1766;53.490;10.174;2023-11-18T01:34:09;12.10;51.40
3504;DHT22;1766;53.490;10.174;2023-11-18T01:36:12;12.10;51.40
3504;DHT22;1766;53.490;10.174;2023-11-18T01:38:14;12.00;51.30
3504;DHT22;1766;53.490;10.174;2023-11-18T01:40:16;12.00;51.30
3504;DHT22;1766;53.490;10.174;2023-11-18T01:42:18;12.00;51.40
3504;DHT22;1766;53.490;10.174;2023-11-18T01:44:21;12.00;51.40
3504;DHT22;1766;53.490;10.174;2023-11-18T01:46:25;12.00;51.40
3504;DHT22;1766;53.490;10.174;2023-11-18T01:48:30;12.00;51.90
3504;DHT22;1766;53.490;10.174;2023-11-18T01:50:33;12.00;51.50
3504;DHT22;1766;53.490;10.174;2023-11-18T01:52:35;12.00;51.40
3504;DHT22;1766;53.490;10.174;2023-11-18T01:54:38;12.00;51.50
3504;DHT22;1766;53.490;10.174;2023-11-18T01:56:41;12.00;51.50
3504;DHT22;1766;53.490;10.174;2023-11-18T01:58:44;12.00;51.50
3504;DHT22;1766;53.490;10.174;2023-11-18T02:00:47;12.00;51.40
3504;DHT22;1766;53.490;10.174;2023-11-18T02:02:50;12.00;51.40
3504;DHT22;1766;53.490;10.174;2023-11-18T02:04:52;12.00;51.40
3504;DHT22;1766;53.490;10.174;2023-11-18T02:06:53;12.00;51.40
3504;DHT22;1766;53.490;10.174;2023-11-18T02:08:56;12.00;51.40
3504;DHT22;1766;53.490;10.174;2023-11-18T02:11:04;12.00;51.30
3504;DHT22;1766;53.490;10.174;2023-11-18T02:13:19;11.90;51.40
3504;DHT22;1766;53.490;10.174;2023-11-18T02:15:27;11.90;51.50
3504;DHT22;1766;53.490;10.174;2023-11-18T02:17:33;11.80;51.40
3504;DHT22;1766;53.490;10.174;2023-11-18T02:19:37;11.80;51.30
3504;DHT22;1766;53.490;10.174;2023-11-18T02:21:40;11.80;51.30
3504;DHT22;1766;53.490;10.174;2023-11-18T02:23:43;11.70;51.40
3504;DHT22;1766;53.490;10.174;2023-11-18T02:25:47;11.70;51.50
3504;DHT22;1766;53.490;10.174;2023-11-18T02:27:49;11.70;51.60
3504;DHT22;1766;53.490;10.174;2023-11-18T02:29:51;11.60;51.50
3504;DHT22;1766;53.490;10.174;2023-11-18T02:31:58;11.60;51.60
3504;DHT22;1766;53.490;10.174;2023-11-18T02:34:10;11.60;51.70
3504;DHT22;1766;53.490;10.174;2023-11-18T02:36:23;11.60;51.70
3504;DHT22;1766;53.490;10.174;2023-11-18T02:38:38;11.60;51.70
3504;DHT22;1766;53.490;10.174;2023-11-18T02:40:43;11.70;51.80
3504;DHT22;1766;53.490;10.174;2023-11-18T02:42:51;11.60;51.60
3504;DHT22;1766;53.490;10.174;2023-11-18T02:44:55;11.60;51.70
3504;DHT22;1766;53.490;10.174;2023-11-18T02:47:00;11.50;51.70
3504;DHT22;1766;53.490;10.174;2023-11-18T02:49:02;11.50;51.70
3504;DHT22;1766;53.490;10.174;2023-11-18T02:51:04;11.40;51.80
3504;DHT22;1766;53.490;10.174;2023-11-18T02:53:08;11.40;51.90
3504;DHT22;1766;53.490;10.174;2023-11-18T02:55:10;11.40;51.90
3504;DHT22;1766;53.490;10.174;2023-11-18T02:57:12;11.40;51.90
3504;DHT22;1766;53.490;10.174;2023-11-18T02:59:16;11.50;52.00
3504;DHT22;1766;53.490;10.174;2023-11-18T03:01:18;11.40;52.10
3504;DHT22;1766;53.490;10.174;2023-11-18T03:03:20;11.50;52.10
3504;DHT22;1766;53.490;10.174;2023-11-18T03:05:22;11.50;52.10
3504;DHT22;1766;53.490;10.174;2023-11-18T03:07:26;11.50;52.10
3504;DHT22;1766;53.490;10.174;2023-11-18T03:09:28;11.50;52.20
3504;DHT22;1766;53.490;10.174;2023-11-18T03:11:30;11.60;52.20
3504;DHT22;1766;53.490;10.174;2023-11-18T03:13:33;11.60;52.20
3504;DHT22;1766;53.490;10.174;2023-11-18T03:15:37;11.60;52.20
3504;DHT22;1766;53.490;10.174;2023-11-18T03:17:39;11.70;52.30
3504;DHT22;1766;53.490;10.174;2023-11-18T03:19:41;11.60;52.10
3504;DHT22;1766;53.490;10.174;2023-11-18T03:21:43;11.60;52.10
3504;DHT22;1766;53.490;10.174;2023-11-18T03:23:45;11.60;52.20
3504;DHT22;1766;53.490;10.174;2023-11-18T03:25:47;11.60;52.30
3504;DHT22;1766;53.490;10.174;2023-11-18T03:27:49;11.50;52.30
3504;DHT22;1766;53.490;10.174;2023-11-18T03:29:51;11.50;52.30
3504;DHT22;1766;53.490;10.174;2023-11-18T03:31:53;11.50;52.30
3504;DHT22;1766;53.490;10.174;2023-11-18T03:33:55;11.50;52.40
3504;DHT22;1766;53.490;10.174;2023-11-18T03:35:57;11.50;52.40
3504;DHT22;1766;53.490;10.174;2023-11-18T03:37:59;11.60;52.50
3504;DHT22;1766;53.490;10.174;2023-11-18T03:40:00;11.60;52.50
3504;DHT22;1766;53.490;10.174;2023-11-18T03:42:01;11.60;52.40
3504;DHT22;1766;53.490;10.174;2023-11-18T03:44:04;11.60;52.40
3504;DHT22;1766;53.490;10.174;2023-11-18T03:46:05;11.60;52.50
3504;DHT22;1766;53.490;10.174;2023-11-18T03:48:09;11.60;52.50
3504;DHT22;1766;53.490;10.174;2023-11-18T03:50:14;11.60;52.50
3504;DHT22;1766;53.490;10.174;2023-11-18T03:52:16;11.50;52.40
3504;DHT22;1766;53.490;10.174;2023-11-18T03:54:18;11.50;52.50
3504;DHT22;1766;53.490;10.174;2023-11-18T03:56:20;11.50;52.40
3504;DHT22;1766;53.490;10.174;2023-11-18T03:58:22;11.50;52.50
3504;DHT22;1766;53.490;10.174;2023-11-18T04:00:24;11.50;52.60
3504;DHT22;1766;53.490;10.174;2023-11-18T04:02:29;11.50;52.60
3504;DHT22;1766;53.490;10.174;2023-11-18T04:04:32;11.50;52.60
3504;DHT22;1766;53.490;10.174;2023-11-18T04:06:34;11.60;52.70
3504;DHT22;1766;53.490;10.174;2023-11-18T04:08:36;11.50;52.50
3504;DHT22;1766;53.490;10.174;2023-11-18T04:10:38;11.50;52.60
3504;DHT22;1766;53.490;10.174;2023-11-18T04:12:40;11.50;52.70
3504;DHT22;1766;53.490;10.174;2023-11-18T04:14:47;11.50;52.70
3504;DHT22;1766;53.490;10.174;2023-11-18T04:16:48;11.50;52.80
3504;DHT22;1766;53.490;10.174;2023-11-18T04:18:50;11.50;52.80
3504;DHT22;1766;53.490;10.174;2023-11-18T04:20:54;11.50;52.80
3504;DHT22;1766;53.490;10.174;2023-11-18T04:22:55;11.50;52.80
3504;DHT22;1766;53.490;10.174;2023-11-18T04:24:56;11.50;52.80
3504;DHT22;1766;53.490;10.174;2023-11-18T04:26:57;11.50;52.70
3504;DHT22;1766;53.490;10.174;2023-11-18T04:28:59;11.60;52.80
3504;DHT22;1766;53.490;10.174;2023-11-18T04:31:00;11.60;52.90
3504;DHT22;1766;53.490;10.174;2023-11-18T04:33:03;11.50;52.80
3504;DHT22;1766;53.490;10.174;2023-11-18T04:35:05;11.60;52.80
3504;DHT22;1766;53.490;10.174;2023-11-18T04:37:11;11.60;52.90
3504;DHT22;1766;53.490;10.174;2023-11-18T04:39:13;11.60;52.80
3504;DHT22;1766;53.490;10.174;2023-11-18T04:41:16;11.60;52.80
3504;DHT22;1766;53.490;10.174;2023-11-18T04:43:17;11.60;52.80
3504;DHT22;1766;53.490;10.174;2023-11-18T04:45:19;11.60;52.90
3504;DHT22;1766;53.490;10.174;2023-11-18T04:47:21;11.60;52.90
3504;DHT22;1766;53.490;10.174;2023-11-18T04:49:22;11.60;53.00
3504;DHT22;1766;53.490;10.174;2023-11-18T04:51:24;11.60;52.90
3504;DHT22;1766;53.490;10.174;2023-11-18T04:53:27;11.60;52.80
3504;DHT22;1766;53.490;10.174;2023-11-18T04:55:28;11.70;53.00
3504;DHT22;1766;53.490;10.174;2023-11-18T04:57:31;11.60;52.80
3504;DHT22;1766;53.490;10.174;2023-11-18T04:59:33;11.60;52.90
3504;DHT22;1766;53.490;10.174;2023-11-18T05:01:34;11.60;52.90
3504;DHT22;1766;53.490;10.174;2023-11-18T05:03:37;11.60;53.00
3504;DHT22;1766;53.490;10.174;2023-11-18T05:05:40;11.60;53.00
3504;DHT22;1766;53.490;10.174;2023-11-18T05:07:42;11.50;52.90
3504;DHT22;1766;53.490;10.174;2023-11-18T05:09:46;11.60;53.10
3504;DHT22;1766;53.490;10.174;2023-11-18T05:11:48;11.60;53.00
3504;DHT22;1766;53.490;10.174;2023-11-18T05:13:50;11.60;53.10
3504;DHT22;1766;53.490;10.174;2023-11-18T05:15:51;11.60;53.00
3504;DHT22;1766;53.490;10.174;2023-11-18T05:17:54;11.60;53.00
3504;DHT22;1766;53.490;10.174;2023-11-18T05:19:56;11.70;53.20
3504;DHT22;1766;53.490;10.174;2023-11-18T05:21:57;11.70;53.20
3504;DHT22;1766;53.490;10.174;2023-11-18T05:24:00;11.70;53.10
3504;DHT22;1766;53.490;10.174;2023-11-18T05:26:05;11.70;53.10
3504;DHT22;1766;53.490;10.174;2023-11-18T05:28:07;11.80;53.20
3504;DHT22;1766;53.490;10.174;2023-11-18T05:30:09;11.70;53.00
3504;DHT22;1766;53.490;10.174;2023-11-18T05:32:12;11.70;53.10
3504;DHT22;1766;53.490;10.174;2023-11-18T05:34:14;11.70;52.90
3504;DHT22;1766;53.490;10.174;2023-11-18T05:36:16;11.70;53.10
3504;DHT22;1766;53.490;10.174;2023-11-18T05:38:18;11.70;53.10
3504;DHT22;1766;53.490;10.174;2023-11-18T05:40:22;11.70;53.10
3504;DHT22;1766;53.490;10.174;2023-11-18T05:42:27;11.70;53.10
3504;DHT22;1766;53.490;10.174;2023-11-18T05:44:28;11.70;53.00
3504;DHT22;1766;53.490;10.174;2023-11-18T05:46:37;11.70;53.00
3504;DHT22;1766;53.490;10.174;2023-11-18T05:48:40;11.60;52.90
3504;DHT22;1766;53.490;10.174;2023-11-18T05:50:42;11.70;53.10
3504;DHT22;1766;53.490;10.174;2023-11-18T05:52:44;11.70;53.00
3504;DHT22;1766;53.490;10.174;2023-11-18T05:54:46;11.60;52.90
3504;DHT22;1766;53.490;10.174;2023-11-18T05:56:47;11.70;53.10
3504;DHT22;1766;53.490;10.174;2023-11-18T05:58:52;11.70;53.00
3504;DHT22;1766;53.490;10.174;2023-11-18T06:00:53;11.70;53.10
3504;DHT22;1766;53.490;10.174;2023-11-18T06:02:55;11.70;53.00
3504;DHT22;1766;53.490;10.174;2023-11-18T06:04:57;11.70;53.00
3504;DHT22;1766;53.490;10.174;2023-11-18T06:06:59;11.70;53.00
3504;DHT22;1766;53.490;10.174;2023-11-18T06:09:03;11.70;52.90
3504;DHT22;1766;53.490;10.174;2023-11-18T06:11:10;11.60;52.80
3504;DHT22;1766;53.490;10.174;2023-11-18T06:13:14;11.60;53.00
3504;DHT22;1766;53.490;10.174;2023-11-18T06:15:18;11.60;52.80
3504;DHT22;1766;53.490;10.174;2023-11-18T06:17:21;11.60;52.90
3504;DHT22;1766;53.490;10.174;2023-11-18T06:19:24;11.60;52.90
3504;DHT22;1766;53.490;10.174;2023-11-18T06:21:26;11.50;52.80
3504;DHT22;1766;53.490;10.174;2023-11-18T06:23:30;11.50;52.70
3504;DHT22;1766;53.490;10.174;2023-11-18T06:25:33;11.50;52.80
3504;DHT22;1766;53.490;10.174;2023-11-18T06:27:35;11.40;52.80
3504;DHT22;1766;53.490;10.174;2023-11-18T06:29:36;11.40;52.70
3504;DHT22;1766;53.490;10.174;2023-11-18T06:31:40;11.30;52.60
3504;DHT22;1766;53.490;10.174;2023-11-18T06:33:44;11.30;52.70
3504;DHT22;1766;53.490;10.174;2023-11-18T06:35:45;11.20;53.00
3504;DHT22;1766;53.490;10.174;2023-11-18T06:37:47;11.20;52.90
3504;DHT22;1766;53.490;10.174;2023-11-18T06:39:49;11.20;52.90
3504;DHT22;1766;53.490;10.174;2023-11-18T06:41:51;11.10;52.80
3504;DHT22;1766;53.490;10.174;2023-11-18T06:43:53;11.10;52.80
3504;DHT22;1766;53.490;10.174;2023-11-18T06:46:01;11.10;52.90
3504;DHT22;1766;53.490;10.174;2023-11-18T06:48:05;11.10;52.90
3504;DHT22;1766;53.490;10.174;2023-11-18T06:50:07;11.10;53.00
3504;DHT22;1766;53.490;10.174;2023-11-18T06:52:09;11.10;53.00
3504;DHT22;1766;53.490;10.174;2023-11-18T06:54:13;11.00;53.20
3504;DHT22;1766;53.490;10.174;2023-11-18T06:56:15;11.20;53.50
3504;DHT22;1766;53.490;10.174;2023-11-18T06:58:16;11.40;53.90
3504;DHT22;1766;53.490;10.174;2023-11-18T07:00:19;11.60;53.80
3504;DHT22;1766;53.490;10.174;2023-11-18T07:02:22;11.70;53.40
3504;DHT22;1766;53.490;10.174;2023-11-18T07:04:25;11.70;53.20
3504;DHT22;1766;53.490;10.174;2023-11-18T07:06:27;11.80;53.20
3504;DHT22;1766;53.490;10.174;2023-11-18T07:08:29;11.70;53.10
3504;DHT22;1766;53.490;10.174;2023-11-18T07:10:31;11.60;52.80
3504;DHT22;1766;53.490;10.174;2023-11-18T07:12:33;11.60;52.90
3504;DHT22;1766;53.490;10.174;2023-11-18T07:14:34;11.70;53.20
3504;DHT22;1766;53.490;10.174;2023-11-18T07:16:37;11.60;53.00
3504;DHT22;1766;53.490;10.174;2023-11-18T07:18:40;11.60;53.10
3504;DHT22;1766;53.490;10.174;2023-11-18T07:20:43;11.60;53.00
3504;DHT22;1766;53.490;10.174;2023-11-18T07:22:45;11.50;52.90
3504;DHT22;1766;53.490;10.174;2023-11-18T07:24:47;11.50;52.80
3504;DHT22;1766;53.490;10.174;2023-11-18T07:26:49;11.40;52.70
3504;DHT22;1766;53.490;10.174;2023-11-18T07:28:52;11.40;52.70
3504;DHT22;1766;53.490;10.174;2023-11-18T07:30:54;11.20;52.30
3504;DHT22;1766;53.490;10.174;2023-11-18T07:32:55;11.10;52.50
3504;DHT22;1766;53.490;10.174;2023-11-18T07:35:01;11.10;52.70
3504;DHT22;1766;53.490;10.174;2023-11-18T07:37:06;11.00;52.60
3504;DHT22;1766;53.490;10.174;2023-11-18T07:39:09;10.90;52.60
3504;DHT22;1766;53.490;10.174;2023-11-18T07:41:16;10.90;52.80
3504;DHT22;1766;53.490;10.174;2023-11-18T07:43:24;10.90;52.80
3504;DHT22;1766;53.490;10.174;2023-11-18T07:45:34;11.00;53.50
3504;DHT22;1766;53.490;10.174;2023-11-18T07:47:38;11.10;53.20
3504;DHT22;1766;53.490;10.174;2023-11-18T07:49:40;11.10;53.20
3504;DHT22;1766;53.490;10.174;2023-11-18T07:51:42;11.20;53.20
3504;DHT22;1766;53.490;10.174;2023-11-18T07:53:45;11.20;53.10
3504;DHT22;1766;53.490;10.174;2023-11-18T07:55:47;11.30;53.10
3504;DHT22;1766;53.490;10.174;2023-11-18T07:57:50;11.30;52.90
3504;DHT22;1766;53.490;10.174;2023-11-18T07:59:53;11.30;53.40
3504;DHT22;1766;53.490;10.174;2023-11-18T08:01:55;11.30;52.70
3504;DHT22;1766;53.490;10.174;2023-11-18T08:03:58;11.30;52.70
3504;DHT22;1766;53.490;10.174;2023-11-18T08:06:00;11.30;52.70
3504;DHT22;1766;53.490;10.174;2023-11-18T08:08:03;11.30;52.80
3504;DHT22;1766;53.490;10.174;2023-11-18T08:10:07;11.30;52.90
3504;DHT22;1766;53.490;10.174;2023-11-18T08:12:13;11.40;53.10
3504;DHT22;1766;53.490;10.174;2023-11-18T08:14:15;11.40;53.10
3504;DHT22;1766;53.490;10.174;2023-11-18T08:16:17;11.50;53.10
3504;DHT22;1766;53.490;10.174;2023-11-18T08:18:19;11.60;53.00
3504;DHT22;1766;53.490;10.174;2023-11-18T08:20:24;11.60;53.00
3504;DHT22;1766;53.490;10.174;2023-11-18T08:22:27;11.60;52.90
3504;DHT22;1766;53.490;10.174;2023-11-18T08:24:28;11.60;52.70
3504;DHT22;1766;53.490;10.174;2023-11-18T08:26:33;11.60;52.70
3504;DHT22;1766;53.490;10.174;2023-11-18T08:28:35;11.60;52.90
3504;DHT22;1766;53.490;10.174;2023-11-18T08:30:37;11.60;52.80
3504;DHT22;1766;53.490;10.174;2023-11-18T08:32:41;11.70;53.00
3504;DHT22;1766;53.490;10.174;2023-11-18T08:34:44;11.70;53.10
3504;DHT22;1766;53.490;10.174;2023-11-18T08:36:46;11.80;53.20
3504;DHT22;1766;53.490;10.174;2023-11-18T08:38:48;11.90;53.30
3504;DHT22;1766;53.490;10.174;2023-11-18T08:40:50;12.00;53.30
3504;DHT22;1766;53.490;10.174;2023-11-18T08:42:54;12.10;53.30
3504;DHT22;1766;53.490;10.174;2023-11-18T08:44:56;12.30;53.40
3504;DHT22;1766;53.490;10.174;2023-11-18T08:46:59;12.30;53.20
3504;DHT22;1766;53.490;10.174;2023-11-18T08:49:06;12.40;53.10
3504;DHT22;1766;53.490;10.174;2023-11-18T08:51:11;12.40;52.90
3504;DHT22;1766;53.490;10.174;2023-11-18T08:53:14;12.50;53.00
3504;DHT22;1766;53.490;10.174;2023-11-18T08:55:19;12.50;53.10
3504;DHT22;1766;53.490;10.174;2023-11-18T08:57:21;13.40;53.80
3504;DHT22;1766;53.490;10.174;2023-11-18T08:59:27;12.70;53.10
3504;DHT22;1766;53.490;10.174;2023-11-18T09:01:28;12.80;53.10
3504;DHT22;1766;53.490;10.174;2023-11-18T09:03:32;12.90;53.20
3504;DHT22;1766;53.490;10.174;2023-11-18T09:05:35;13.10;53.30
3504;DHT22;1766;53.490;10.174;2023-11-18T09:07:36;13.30;53.30
3504;DHT22;1766;53.490;10.174;2023-11-18T09:09:38;13.40;53.30
3504;DHT22;1766;53.490;10.174;2023-11-18T09:11:40;13.60;53.20
3504;DHT22;1766;53.490;10.174;2023-11-18T09:13:43;13.70;52.90
3504;DHT22;1766;53.490;10.174;2023-11-18T09:15:49;13.80;52.70
3504;DHT22;1766;53.490;10.174;2023-11-18T09:17:50;13.90;52.50
3504;DHT22;1766;53.490;10.174;2023-11-18T09:19:53;14.00;52.50
3504;DHT22;1766;53.490;10.174;2023-11-18T09:21:55;14.00;52.30
3504;DHT22;1766;53.490;10.174;2023-11-18T09:23:56;14.10;52.10
3504;DHT22;1766;53.490;10.174;2023-11-18T09:25:58;14.20;52.00
3504;DHT22;1766;53.490;10.174;2023-11-18T09:28:00;14.10;51.60
3504;DHT22;1766;53.490;10.174;2023-11-18T09:30:04;14.20;51.50
3504;DHT22;1766;53.490;10.174;2023-11-18T09:32:15;14.20;51.50
3504;DHT22;1766;53.490;10.174;2023-11-18T09:34:17;14.10;51.10
3504;DHT22;1766;53.490;10.174;2023-11-18T09:36:27;14.10;51.00
3504;DHT22;1766;53.490;10.174;2023-11-18T09:38:30;14.10;51.00
3504;DHT22;1766;53.490;10.174;2023-11-18T09:40:38;14.10;51.00
3504;DHT22;1766;53.490;10.174;2023-11-18T09:42:43;14.10;51.00
3504;DHT22;1766;53.490;10.174;2023-11-18T09:44:47;14.10;51.00
3504;DHT22;1766;53.490;10.174;2023-11-18T09:46:51;14.30;51.20
3504;DHT22;1766;53.490;10.174;2023-11-18T09:49:16;14.40;51.20
3504;DHT22;1766;53.490;10.174;2023-11-18T09:51:27;14.50;50.90
3504;DHT22;1766;53.490;10.174;2023-11-18T09:53:31;14.70;51.10
3504;DHT22;1766;53.490;10.174;2023-11-18T09:55:42;14.80;50.90
3504;DHT22;1766;53.490;10.174;2023-11-18T09:57:51;15.00;50.90
3504;DHT22;1766;53.490;10.174;2023-11-18T10:00:01;15.10;50.70
3504;DHT22;1766;53.490;10.174;2023-11-18T10:02:20;15.30;50.70
3504;DHT22;1766;53.490;10.174;2023-11-18T10:04:26;15.50;50.40
3504;DHT22;1766;53.490;10.174;2023-11-18T10:06:28;15.70;50.20
3504;DHT22;1766;53.490;10.174;2023-11-18T10:08:35;15.80;49.90
3504;DHT22;1766;53.490;10.174;2023-11-18T10:10:38;15.90;49.70
3504;DHT22;1766;53.490;10.174;2023-11-18T10:12:47;16.10;49.30
3504;DHT22;1766;53.490;10.174;2023-11-18T10:14:52;16.10;48.70
3504;DHT22;1766;53.490;10.174;2023-11-18T10:16:54;16.20;48.70
3504;DHT22;1766;53.490;10.174;2023-11-18T10:18:58;16.30;48.60
3504;DHT22;1766;53.490;10.174;2023-11-18T10:21:03;16.40;48.20
3504;DHT22;1766;53.490;10.174;2023-11-18T10:23:09;16.50;47.60
3504;DHT22;1766;53.490;10.174;2023-11-18T10:25:10;16.50;46.90
3504;DHT22;1766;53.490;10.174;2023-11-18T10:27:27;16.40;46.50
3504;DHT22;1766;53.490;10.174;2023-11-18T10:29:29;16.30;46.40
3504;DHT22;1766;53.490;10.174;2023-11-18T10:31:31;16.40;46.20
3504;DHT22;1766;53.490;10.174;2023-11-18T10:33:37;16.30;46.20
3504;DHT22;1766;53.490;10.174;2023-11-18T10:35:49;16.40;45.80
3504;DHT22;1766;53.490;10.174;2023-11-18T10:37:54;16.40;45.30
3504;DHT22;1766;53.490;10.174;2023-11-18T10:39:55;16.40;44.70
3504;DHT22;1766;53.490;10.174;2023-11-18T10:41:59;16.30;44.70
3504;DHT22;1766;53.490;10.174;2023-11-18T10:44:06;16.30;44.50
3504;DHT22;1766;53.490;10.174;2023-11-18T10:46:15;16.20;44.30
3504;DHT22;1766;53.490;10.174;2023-11-18T10:48:17;16.20;44.50
3504;DHT22;1766;53.490;10.174;2023-11-18T10:50:21;16.20;44.30
3504;DHT22;1766;53.490;10.174;2023-11-18T10:52:23;16.40;44.40
3504;DHT22;1766;53.490;10.174;2023-11-18T10:54:27;16.40;44.20
3504;DHT22;1766;53.490;10.174;2023-11-18T10:56:30;16.60;44.20
3504;DHT22;1766;53.490;10.174;2023-11-18T10:58:36;16.80;44.30
3504;DHT22;1766;53.490;10.174;2023-11-18T11:00:49;16.90;43.70
3504;DHT22;1766;53.490;10.174;2023-11-18T11:02:57;17.00;43.30
3504;DHT22;1766;53.490;10.174;2023-11-18T11:04:59;17.10;43.10
3504;DHT22;1766;53.490;10.174;2023-11-18T11:07:01;17.10;42.60
3504;DHT22;1766;53.490;10.174;2023-11-18T11:09:03;17.00;42.10
3504;DHT22;1766;53.490;10.174;2023-11-18T11:11:17;16.90;42.10
3504;DHT22;1766;53.490;10.174;2023-11-18T11:13:22;16.90;42.00
3504;DHT22;1766;53.490;10.174;2023-11-18T11:15:29;16.80;41.70
3504;DHT22;1766;53.490;10.174;2023-11-18T11:17:35;16.80;41.70
3504;DHT22;1766;53.490;10.174;2023-11-18T11:19:57;16.90;41.80
3504;DHT22;1766;53.490;10.174;2023-11-18T11:22:17;16.90;41.40
3504;DHT22;1766;53.490;10.174;2023-11-18T11:24:31;16.90;41.30
3504;DHT22;1766;53.490;10.174;2023-11-18T11:26:50;16.90;40.80
3504;DHT22;1766;53.490;10.174;2023-11-18T11:29:04;16.80;40.60
3504;DHT22;1766;53.490;10.174;2023-11-18T11:31:15;16.80;40.50
3504;DHT22;1766;53.490;10.174;2023-11-18T11:33:28;16.80;40.60
3504;DHT22;1766;53.490;10.174;2023-11-18T11:35:40;16.90;40.60
3504;DHT22;1766;53.490;10.174;2023-11-18T11:37:45;17.00;40.60
3504;DHT22;1766;53.490;10.174;2023-11-18T11:39:48;17.20;40.50
3504;DHT22;1766;53.490;10.174;2023-11-18T11:41:53;17.30;40.20
3504;DHT22;1766;53.490;10.174;2023-11-18T11:43:56;17.40;39.60
3504;DHT22;1766;53.490;10.174;2023-11-18T11:46:02;17.40;39.50
3504;DHT22;1766;53.490;10.174;2023-11-18T11:48:11;17.30;39.50
3504;DHT22;1766;53.490;10.174;2023-11-18T11:50:21;17.30;39.70
3504;DHT22;1766;53.490;10.174;2023-11-18T11:52:33;17.30;39.40
3504;DHT22;1766;53.490;10.174;2023-11-18T11:54:42;17.20;39.00
3504;DHT22;1766;53.490;10.174;2023-11-18T11:56:47;16.90;38.90
3504;DHT22;1766;53.490;10.174;2023-11-18T11:58:51;16.80;39.10
3504;DHT22;1766;53.490;10.174;2023-11-18T12:00:54;16.70;39.40
3504;DHT22;1766;53.490;10.174;2023-11-18T12:02:55;16.80;39.90
3504;DHT22;1766;53.490;10.174;2023-11-18T12:04:57;16.80;39.80
3504;DHT22;1766;53.490;10.174;2023-11-18T12:06:59;16.80;39.50
3504;DHT22;1766;53.490;10.174;2023-11-18T12:09:03;16.60;39.40
3504;DHT22;1766;53.490;10.174;2023-11-18T12:11:07;16.40;39.30
3504;DHT22;1766;53.490;10.174;2023-11-18T12:13:10;16.20;39.40
3504;DHT22;1766;53.490;10.174;2023-11-18T12:18:12;15.80;40.00
3504;DHT22;1766;53.490;10.174;2023-11-18T12:20:37;15.70;40.10
3504;DHT22;1766;53.490;10.174;2023-11-18T12:23:04;15.60;40.30
3504;DHT22;1766;53.490;10.174;2023-11-18T12:25:29;15.40;40.40
3504;DHT22;1766;53.490;10.174;2023-11-18T12:27:47;15.30;40.30
3504;DHT22;1766;53.490;10.174;2023-11-18T12:29:52;15.10;40.30
3504;DHT22;1766;53.490;10.174;2023-11-18T12:31:56;15.00;40.40
3504;DHT22;1766;53.490;10.174;2023-11-18T12:34:02;15.00;40.60
3504;DHT22;1766;53.490;10.174;2023-11-18T12:41:34;14.70;40.70
3504;DHT22;1766;53.490;10.174;2023-11-18T12:43:56;14.70;40.90
3504;DHT22;1766;53.490;10.174;2023-11-18T12:48:53;14.60;40.80
3504;DHT22;1766;53.490;10.174;2023-11-18T12:51:00;14.50;40.90
3504;DHT22;1766;53.490;10.174;2023-11-18T12:53:02;14.30;40.90
3504;DHT22;1766;53.490;10.174;2023-11-18T12:55:04;14.30;41.10
3504;DHT22;1766;53.490;10.174;2023-11-18T12:57:08;14.20;41.20
3504;DHT22;1766;53.490;10.174;2023-11-18T12:59:10;14.10;41.20
3504;DHT22;1766;53.490;10.174;2023-11-18T13:01:13;14.10;41.30
3504;DHT22;1766;53.490;10.174;2023-11-18T13:03:16;14.10;41.50
3504;DHT22;1766;53.490;10.174;2023-11-18T13:05:19;14.00;41.60
3504;DHT22;1766;53.490;10.174;2023-11-18T13:07:21;14.00;41.60
3504;DHT22;1766;53.490;10.174;2023-11-18T13:09:25;14.00;41.70
3504;DHT22;1766;53.490;10.174;2023-11-18T13:11:30;13.90;41.70
3504;DHT22;1766;53.490;10.174;2023-11-18T13:13:34;13.80;41.70
3504;DHT22;1766;53.490;10.174;2023-11-18T13:15:36;13.80;41.90
3504;DHT22;1766;53.490;10.174;2023-11-18T13:17:39;13.80;42.00
3504;DHT22;1766;53.490;10.174;2023-11-18T13:19:42;13.80;42.10
3504;DHT22;1766;53.490;10.174;2023-11-18T13:21:46;13.80;42.10
3504;DHT22;1766;53.490;10.174;2023-11-18T13:23:48;13.80;42.20
3504;DHT22;1766;53.490;10.174;2023-11-18T13:25:55;13.80;42.40